Frontier Garland — 3FXX7 — position and weather

sailwx.info

Track history (hours):
 
Tides and Currents Weather Stations Pressure Air Temp Water Temp Dewpoint Dewpoint Depression Visibility Wind Speed Wind Dir Waves Ship Positions

Frontier Garland

Last reported at 2018-Apr-24 04:58 UTC. Time now 2018-Apr-24 05:07 UTC.
Position N 51°56' E 004°03'.

Length 289 m; draft 18.2 m.

Type: Cargo ship. MMSI: 355290000.

Date/timePositionNaut miles runAvg speedWind from/ knotsBaromVisibWave heightAir tempDewpointWater temp
2018-Apr-24 04:58N 51°56' E 004°03'0 0.0
2018-Apr-24 04:28N 51°56' E 004°03'0 0.0
2018-Apr-24 03:58N 51°56' E 004°03'0 0.0
2018-Apr-24 03:28N 51°56' E 004°03'0 0.0
2018-Apr-24 02:58N 51°56' E 004°03'0 0.0
2018-Apr-24 02:28N 51°56' E 004°03'0 0.0
2018-Apr-24 01:58N 51°56' E 004°03'0 0.0
2018-Apr-24 01:28N 51°56' E 004°03'0 0.0
2018-Apr-24 00:58N 51°56' E 004°03'0 0.0
2018-Apr-24 00:28N 51°56' E 004°03'0 0.0
2018-Apr-23 23:58N 51°56' E 004°03'0 0.0
2018-Apr-23 23:28N 51°56' E 004°03'0 0.0
2018-Apr-23 22:58N 51°56' E 004°03'0 0.0
2018-Apr-23 22:28N 51°56' E 004°03'0 0.0
2018-Apr-23 21:58N 51°56' E 004°03'0 0.0
2018-Apr-23 21:28N 51°56' E 004°03'0 0.0
2018-Apr-23 20:58N 51°56' E 004°03'0 0.0
2018-Apr-23 20:28N 51°56' E 004°03'0 0.0
2018-Apr-23 19:58N 51°56' E 004°03'0 0.0
2018-Apr-23 19:28N 51°56' E 004°03'0 0.0
2018-Apr-23 18:58N 51°56' E 004°03'0 0.0
2018-Apr-23 18:28N 51°56' E 004°03'0 0.0
2018-Apr-23 17:58N 51°56' E 004°03'0 0.0
2018-Apr-23 17:28N 51°56' E 004°03'0 0.0
2018-Apr-23 16:58N 51°56' E 004°03'0 0.0
2018-Apr-23 16:28N 51°56' E 004°03'0 0.0
2018-Apr-23 15:58N 51°56' E 004°03'0 0.0
2018-Apr-23 15:28N 51°56' E 004°03'0 0.0
2018-Apr-23 14:58N 51°56' E 004°03'0 0.0
2018-Apr-23 14:28N 51°56' E 004°03'0 0.0
2018-Apr-23 13:58N 51°56' E 004°03'0 0.0
2018-Apr-23 13:28N 51°56' E 004°03'0 0.0
2018-Apr-23 12:58N 51°56' E 004°03'0 0.0
2018-Apr-23 12:28N 51°56' E 004°03'0 0.0
2018-Apr-23 11:58N 51°56' E 004°03'0 0.0
2018-Apr-23 11:28N 51°56' E 004°03'0 0.0
2018-Apr-23 09:39N 51°56' E 004°03'0 0.0
2018-Apr-23 09:30N 51°56' E 004°03'0 0.0
2018-Apr-23 09:00N 51°56' E 004°03'0 0.0
2018-Apr-23 08:30N 51°56' E 004°03'0 0.0
2018-Apr-23 08:00N 51°56' E 004°03'0 0.4
2018-Apr-23 07:30N 51°56' E 004°04'2 3.3
2018-Apr-23 07:00N 51°58' E 004°05'2 4.4
2018-Apr-23 06:30N 51°59' E 004°03'3 6.0
2018-Apr-23 06:00N 52°01' E 003°58'4 8.6
2018-Apr-23 05:30N 52°02' E 003°51'611.2
2018-Apr-23 05:00N 52°01' E 003°42'611.6
2018-Apr-23 04:30N 52°00' E 003°33'611.4
2018-Apr-23 04:00N 51°59' E 003°24'511.1
2018-Apr-23 03:30N 51°59' E 003°15'610.7
2018-Apr-23 02:59N 51°58' E 003°06'6 4.3
2018-Apr-23 01:39N 51°57' E 002°57'0 0.1
2018-Apr-22 22:11N 51°56' E 002°57'0 0.0
2018-Apr-22 21:59N 51°56' E 002°57'0 0.0
2018-Apr-22 21:23N 51°56' E 002°57'0 0.0
2018-Apr-22 20:59N 51°56' E 002°57'0 0.0
2018-Apr-22 20:29N 51°56' E 002°57'0 0.0
2018-Apr-22 19:59N 51°56' E 002°57'0 0.0
2018-Apr-22 19:26N 51°56' E 002°57'0 0.1
2018-Apr-22 18:53N 51°56' E 002°57'0 0.1
2018-Apr-22 18:17N 51°56' E 002°57'0 0.0
2018-Apr-22 17:50N 51°56' E 002°57'0 0.0
2018-Apr-22 17:29N 51°56' E 002°57'0 0.1
2018-Apr-22 15:56N 51°56' E 002°57'0 0.6
2018-Apr-22 15:29N 51°56' E 002°57'0 0.4
2018-Apr-22 14:59N 51°56' E 002°57'2 3.6
2018-Apr-22 14:30N 51°56' E 002°54'4 7.4
2018-Apr-22 14:00N 51°54' E 002°48'4 7.1
2018-Apr-22 13:29N 51°52' E 002°44'3 6.7
2018-Apr-22 13:00N 51°49' E 002°41'4 7.7
2018-Apr-22 12:30N 51°46' E 002°37'4 7.7
2018-Apr-22 12:00N 51°43' E 002°33'4 7.8
2018-Apr-22 11:30N 51°40' E 002°29'4 8.1
2018-Apr-22 10:57N 51°37' E 002°24'4 8.3
2018-Apr-22 10:30N 51°34' E 002°21'4 8.9
2018-Apr-22 10:00N 51°31' E 002°15'5 9.1
2018-Apr-22 09:30N 51°28' E 002°10'5 9.1
2018-Apr-22 09:00N 51°25' E 002°05'4 8.6
2018-Apr-22 08:30N 51°22' E 001°60'5 9.9
2018-Apr-22 08:00N 51°18' E 001°55'510.2
2018-Apr-22 07:30N 51°14' E 001°50'510.5
2018-Apr-22 07:00N 51°10' E 001°45'510.8
2018-Apr-22 06:30N 51°05' E 001°41'611.2
2018-Apr-22 06:00N 51°01' E 001°35'612.9
2018-Apr-22 05:30N 50°56' E 001°28'713.9
2018-Apr-22 05:00N 50°50' E 001°25'713.3
2018-Apr-22 04:30N 50°43' E 001°22'612.4
2018-Apr-22 04:00N 50°39' E 001°15'612.6
2018-Apr-22 03:30N 50°34' E 001°08'612.2
2018-Apr-22 03:00N 50°30' E 001°01'612.2
2018-Apr-22 02:30N 50°29' E 000°51'612.3
2018-Apr-22 02:00N 50°27' E 000°42'612.6
2018-Apr-22 01:30N 50°26' E 000°32'612.9
2018-Apr-22 01:00N 50°24' E 000°23'713.1
2018-Apr-22 00:29N 50°22' E 000°12'613.1
2018-Apr-22 00:00N 50°21' E 000°03'612.9
2018-Apr-21 23:30N 50°19' W 000°07'712.8
2018-Apr-21 22:59N 50°17' W 000°17'612.5
2018-Apr-21 22:29N 50°16' W 000°27'612.2
2018-Apr-21 21:59N 50°14' W 000°36'612.0
2018-Apr-21 21:27N 50°12' W 000°45'511.1
2018-Apr-21 21:01N 50°11' W 000°53'510.4
2018-Apr-21 20:30N 50°10' W 001°01'5 9.9
2018-Apr-21 20:00N 50°08' W 001°08'5 9.3
2018-Apr-21 19:30N 50°07' W 001°15'4 8.5
2018-Apr-21 19:00N 50°06' W 001°21'4 8.3
2018-Apr-21 18:31N 50°05' W 001°28'4 7.9
2018-Apr-21 18:01N 50°04' W 001°34'4 7.6
2018-Apr-21 17:30N 50°03' W 001°39'4 7.6
2018-Apr-21 17:00N 50°02' W 001°45'4 8.1
2018-Apr-21 16:30N 50°01' W 001°51'5 9.4
2018-Apr-21 16:00N 49°60' W 001°58'510.3
2018-Apr-21 15:30N 49°58' W 002°06'611.3
2018-Apr-21 14:59N 49°57' W 002°14'611.9
2018-Apr-21 14:28N 49°55' W 002°24'511.1
2018-Apr-21 14:00N 49°54' W 002°32'5 9.7
2018-Apr-21 13:30N 49°52' W 002°39'5 9.9
2018-Apr-21 13:00N 49°51' W 002°46'510.0
2018-Apr-21 12:30N 49°50' W 002°54'510.1
2018-Apr-21 12:00N 49°48' W 003°01'510.4
2018-Apr-21 11:30N 49°46' W 003°08'510.4
2018-Apr-21 11:00N 49°43' W 003°15'220 9.8
2018-Apr-20 12:38N 47°02' W 007°01'441 9.6
2018-Apr-18 14:35N 40°11' W 010°40'810.7
2018-Apr-18 13:48N 40°03' W 010°43'310.6
2018-Apr-18 13:30N 39°60' W 010°45'510.7
2018-Apr-18 13:00N 39°55' W 010°46'510.8
2018-Apr-18 12:30N 39°49' W 010°48'510.7
2018-Apr-18 12:00N 39°44' W 010°50'510.9
2018-Apr-18 11:30N 39°39' W 010°52'510.7
2018-Apr-18 11:01N 39°34' W 010°54'610.7
2018-Apr-18 10:30N 39°29' W 010°56'510.4
2018-Apr-18 10:00N 39°24' W 010°58'510.6
2018-Apr-18 09:30N 39°19' W 010°60'510.3
2018-Apr-18 09:00N 39°14' W 011°02'910.3
2018-Apr-18 08:06N 39°05' W 011°05'110.0
2018-Apr-18 07:59N 39°04' W 011°05'10 8.8
2018-Apr-18 06:52N 38°54' W 011°09'26 8.6
2018-Apr-18 03:48N 38°30' W 011°21'3 8.3
2018-Apr-18 03:29N 38°27' W 011°22'4 8.3
2018-Apr-18 03:00N 38°23' W 011°24'4 8.4
2018-Apr-18 02:31N 38°20' W 011°26'4 8.1
2018-Apr-18 02:00N 38°16' W 011°28'4 8.0
2018-Apr-18 01:30N 38°12' W 011°30'4 7.7
2018-Apr-18 01:00N 38°08' W 011°32'4 7.7
2018-Apr-18 00:30N 38°05' W 011°33'4 7.8
2018-Apr-18 00:00N 38°01' W 011°35'4 8.0
2018-Apr-17 23:31N 37°57' W 011°37'4 8.2
2018-Apr-17 23:00N 37°54' W 011°39'4 8.2
2018-Apr-17 22:30N 37°50' W 011°40'4 8.1
2018-Apr-17 21:59N 37°46' W 011°41'5 7.9
2018-Apr-17 21:24N 37°41' W 011°43'3 8.0
2018-Apr-17 21:00N 37°38' W 011°43'4 7.8
2018-Apr-17 20:31N 37°34' W 011°44'4 7.7
2018-Apr-17 19:58N 37°30' W 011°46'4 7.8
2018-Apr-17 19:30N 37°27' W 011°47'4 7.9
2018-Apr-17 19:00N 37°23' W 011°48'4 8.0
2018-Apr-17 18:30N 37°19' W 011°49'4 8.1
2018-Apr-17 17:57N 37°14' W 011°50'14 8.3
2018-Apr-17 16:15N 37°01' W 011°53'3 9.6
2018-Apr-17 15:55N 36°57' W 011°54'410.7
2018-Apr-17 15:30N 36°53' W 011°55'448 9.4
2018-Apr-15 15:52N 29°42' W 014°23'3 8.6
2018-Apr-15 15:30N 29°39' W 014°24'4 8.7
2018-Apr-15 15:00N 29°35' W 014°25'4 8.9
2018-Apr-15 14:30N 29°31' W 014°27'6 9.0
2018-Apr-15 13:51N 29°25' W 014°29'3 8.9
2018-Apr-15 13:27N 29°22' W 014°30'4 8.9
2018-Apr-15 12:58N 29°18' W 014°31'4 9.0
2018-Apr-15 12:30N 29°14' W 014°33'5 8.9
2018-Apr-15 11:55N 29°09' W 014°34'4 8.8
2018-Apr-15 11:29N 29°05' W 014°36'5 8.8
2018-Apr-15 10:54N 29°00' W 014°37'4 8.8
2018-Apr-15 10:28N 28°57' W 014°38'4 8.7
2018-Apr-15 10:00N 28°53' W 014°40'4 8.6
2018-Apr-15 09:30N 28°49' W 014°41'5 8.5
2018-Apr-15 08:58N 28°44' W 014°42'4 8.4
2018-Apr-15 08:30N 28°40' W 014°44'4 8.3
2018-Apr-15 08:00N 28°36' W 014°45'4 8.1
2018-Apr-15 07:30N 28°33' W 014°46'4 8.1
2018-Apr-15 07:00N 28°29' W 014°48'4 8.1
2018-Apr-15 06:30N 28°25' W 014°49'4 8.2
2018-Apr-15 06:01N 28°21' W 014°50'4 8.1
2018-Apr-15 05:30N 28°17' W 014°52'4 8.0
2018-Apr-15 05:00N 28°13' W 014°53'4 8.0
2018-Apr-15 04:30N 28°10' W 014°55'4 8.0
2018-Apr-15 04:01N 28°06' W 014°56'4 8.0
2018-Apr-15 03:30N 28°02' W 014°58'4 7.9
2018-Apr-15 03:00N 27°58' W 014°59'4 7.9
2018-Apr-15 02:30N 27°54' W 015°01'4 8.2
2018-Apr-15 02:01N 27°51' W 015°02'4 8.6
2018-Apr-15 01:31N 27°47' W 015°04'5 8.9
2018-Apr-15 01:00N 27°42' W 015°06'5 8.7
2018-Apr-15 00:26N 27°38' W 015°07'6 8.5
2018-Apr-14 23:45N 27°32' W 015°10'  
Track history (hours):
 
Tides and Currents Weather Stations Pressure Air Temp Water Temp Dewpoint Dewpoint Depression Visibility Wind Speed Wind Dir Waves Ship Positions

Frontier Garland

Last reported at 2018-Apr-24 04:58 UTC. Time now 2018-Apr-24 05:07 UTC.
Position N 51°56' E 004°03'.

Length 289 m; draft 18.2 m.

Type: Cargo ship. MMSI: 355290000.

Date/timePositionNaut miles runAvg speedWind from/ knotsBaromVisibWave heightAir tempDewpointWater temp
2018-Apr-24 04:58N 51°56' E 004°03'0 0.0
2018-Apr-24 04:28N 51°56' E 004°03'0 0.0
2018-Apr-24 03:58N 51°56' E 004°03'0 0.0
2018-Apr-24 03:28N 51°56' E 004°03'0 0.0
2018-Apr-24 02:58N 51°56' E 004°03'0 0.0
2018-Apr-24 02:28N 51°56' E 004°03'0 0.0
2018-Apr-24 01:58N 51°56' E 004°03'0 0.0
2018-Apr-24 01:28N 51°56' E 004°03'0 0.0
2018-Apr-24 00:58N 51°56' E 004°03'0 0.0
2018-Apr-24 00:28N 51°56' E 004°03'0 0.0
2018-Apr-23 23:58N 51°56' E 004°03'0 0.0
2018-Apr-23 23:28N 51°56' E 004°03'0 0.0
2018-Apr-23 22:58N 51°56' E 004°03'0 0.0
2018-Apr-23 22:28N 51°56' E 004°03'0 0.0
2018-Apr-23 21:58N 51°56' E 004°03'0 0.0
2018-Apr-23 21:28N 51°56' E 004°03'0 0.0
2018-Apr-23 20:58N 51°56' E 004°03'0 0.0
2018-Apr-23 20:28N 51°56' E 004°03'0 0.0
2018-Apr-23 19:58N 51°56' E 004°03'0 0.0
2018-Apr-23 19:28N 51°56' E 004°03'0 0.0
2018-Apr-23 18:58N 51°56' E 004°03'0 0.0
2018-Apr-23 18:28N 51°56' E 004°03'0 0.0
2018-Apr-23 17:58N 51°56' E 004°03'0 0.0
2018-Apr-23 17:28N 51°56' E 004°03'0 0.0
2018-Apr-23 16:58N 51°56' E 004°03'0 0.0
2018-Apr-23 16:28N 51°56' E 004°03'0 0.0
2018-Apr-23 15:58N 51°56' E 004°03'0 0.0
2018-Apr-23 15:28N 51°56' E 004°03'0 0.0
2018-Apr-23 14:58N 51°56' E 004°03'0 0.0
2018-Apr-23 14:28N 51°56' E 004°03'0 0.0
2018-Apr-23 13:58N 51°56' E 004°03'0 0.0
2018-Apr-23 13:28N 51°56' E 004°03'0 0.0
2018-Apr-23 12:58N 51°56' E 004°03'0 0.0
2018-Apr-23 12:28N 51°56' E 004°03'0 0.0
2018-Apr-23 11:58N 51°56' E 004°03'0 0.0
2018-Apr-23 11:28N 51°56' E 004°03'0 0.0
2018-Apr-23 09:39N 51°56' E 004°03'0 0.0
2018-Apr-23 09:30N 51°56' E 004°03'0 0.0
2018-Apr-23 09:00N 51°56' E 004°03'0 0.0
2018-Apr-23 08:30N 51°56' E 004°03'0 0.0
2018-Apr-23 08:00N 51°56' E 004°03'0 0.4
2018-Apr-23 07:30N 51°56' E 004°04'2 3.3
2018-Apr-23 07:00N 51°58' E 004°05'2 4.4
2018-Apr-23 06:30N 51°59' E 004°03'3 6.0
2018-Apr-23 06:00N 52°01' E 003°58'4 8.6
2018-Apr-23 05:30N 52°02' E 003°51'611.2
2018-Apr-23 05:00N 52°01' E 003°42'611.6
2018-Apr-23 04:30N 52°00' E 003°33'611.4
2018-Apr-23 04:00N 51°59' E 003°24'511.1
2018-Apr-23 03:30N 51°59' E 003°15'610.7
2018-Apr-23 02:59N 51°58' E 003°06'6 4.3
2018-Apr-23 01:39N 51°57' E 002°57'0 0.1
2018-Apr-22 22:11N 51°56' E 002°57'0 0.0
2018-Apr-22 21:59N 51°56' E 002°57'0 0.0
2018-Apr-22 21:23N 51°56' E 002°57'0 0.0
2018-Apr-22 20:59N 51°56' E 002°57'0 0.0
2018-Apr-22 20:29N 51°56' E 002°57'0 0.0
2018-Apr-22 19:59N 51°56' E 002°57'0 0.0
2018-Apr-22 19:26N 51°56' E 002°57'0 0.1
2018-Apr-22 18:53N 51°56' E 002°57'0 0.1
2018-Apr-22 18:17N 51°56' E 002°57'0 0.0
2018-Apr-22 17:50N 51°56' E 002°57'0 0.0
2018-Apr-22 17:29N 51°56' E 002°57'0 0.1
2018-Apr-22 15:56N 51°56' E 002°57'0 0.6
2018-Apr-22 15:29N 51°56' E 002°57'0 0.4
2018-Apr-22 14:59N 51°56' E 002°57'2 3.6
2018-Apr-22 14:30N 51°56' E 002°54'4 7.4
2018-Apr-22 14:00N 51°54' E 002°48'4 7.1
2018-Apr-22 13:29N 51°52' E 002°44'3 6.7
2018-Apr-22 13:00N 51°49' E 002°41'4 7.7
2018-Apr-22 12:30N 51°46' E 002°37'4 7.7
2018-Apr-22 12:00N 51°43' E 002°33'4 7.8
2018-Apr-22 11:30N 51°40' E 002°29'4 8.1
2018-Apr-22 10:57N 51°37' E 002°24'4 8.3
2018-Apr-22 10:30N 51°34' E 002°21'4 8.9
2018-Apr-22 10:00N 51°31' E 002°15'5 9.1
2018-Apr-22 09:30N 51°28' E 002°10'5 9.1
2018-Apr-22 09:00N 51°25' E 002°05'4 8.6
2018-Apr-22 08:30N 51°22' E 001°60'5 9.9
2018-Apr-22 08:00N 51°18' E 001°55'510.2
2018-Apr-22 07:30N 51°14' E 001°50'510.5
2018-Apr-22 07:00N 51°10' E 001°45'510.8
2018-Apr-22 06:30N 51°05' E 001°41'611.2
2018-Apr-22 06:00N 51°01' E 001°35'612.9
2018-Apr-22 05:30N 50°56' E 001°28'713.9
2018-Apr-22 05:00N 50°50' E 001°25'713.3
2018-Apr-22 04:30N 50°43' E 001°22'612.4
2018-Apr-22 04:00N 50°39' E 001°15'612.6
2018-Apr-22 03:30N 50°34' E 001°08'612.2
2018-Apr-22 03:00N 50°30' E 001°01'612.2
2018-Apr-22 02:30N 50°29' E 000°51'612.3
2018-Apr-22 02:00N 50°27' E 000°42'612.6
2018-Apr-22 01:30N 50°26' E 000°32'612.9
2018-Apr-22 01:00N 50°24' E 000°23'713.1
2018-Apr-22 00:29N 50°22' E 000°12'613.1
2018-Apr-22 00:00N 50°21' E 000°03'612.9
2018-Apr-21 23:30N 50°19' W 000°07'712.8
2018-Apr-21 22:59N 50°17' W 000°17'612.5
2018-Apr-21 22:29N 50°16' W 000°27'612.2
2018-Apr-21 21:59N 50°14' W 000°36'612.0
2018-Apr-21 21:27N 50°12' W 000°45'511.1
2018-Apr-21 21:01N 50°11' W 000°53'510.4
2018-Apr-21 20:30N 50°10' W 001°01'5 9.9
2018-Apr-21 20:00N 50°08' W 001°08'5 9.3
2018-Apr-21 19:30N 50°07' W 001°15'4 8.5
2018-Apr-21 19:00N 50°06' W 001°21'4 8.3
2018-Apr-21 18:31N 50°05' W 001°28'4 7.9
2018-Apr-21 18:01N 50°04' W 001°34'4 7.6
2018-Apr-21 17:30N 50°03' W 001°39'4 7.6
2018-Apr-21 17:00N 50°02' W 001°45'4 8.1
2018-Apr-21 16:30N 50°01' W 001°51'5 9.4
2018-Apr-21 16:00N 49°60' W 001°58'510.3
2018-Apr-21 15:30N 49°58' W 002°06'611.3
2018-Apr-21 14:59N 49°57' W 002°14'611.9
2018-Apr-21 14:28N 49°55' W 002°24'511.1
2018-Apr-21 14:00N 49°54' W 002°32'5 9.7
2018-Apr-21 13:30N 49°52' W 002°39'5 9.9
2018-Apr-21 13:00N 49°51' W 002°46'510.0
2018-Apr-21 12:30N 49°50' W 002°54'510.1
2018-Apr-21 12:00N 49°48' W 003°01'510.4
2018-Apr-21 11:30N 49°46' W 003°08'510.4
2018-Apr-21 11:00N 49°43' W 003°15'220 9.8
2018-Apr-20 12:38N 47°02' W 007°01'441 9.6
2018-Apr-18 14:35N 40°11' W 010°40'810.7
2018-Apr-18 13:48N 40°03' W 010°43'310.6
2018-Apr-18 13:30N 39°60' W 010°45'510.7
2018-Apr-18 13:00N 39°55' W 010°46'510.8
2018-Apr-18 12:30N 39°49' W 010°48'510.7
2018-Apr-18 12:00N 39°44' W 010°50'510.9
2018-Apr-18 11:30N 39°39' W 010°52'510.7
2018-Apr-18 11:01N 39°34' W 010°54'610.7
2018-Apr-18 10:30N 39°29' W 010°56'510.4
2018-Apr-18 10:00N 39°24' W 010°58'510.6
2018-Apr-18 09:30N 39°19' W 010°60'510.3
2018-Apr-18 09:00N 39°14' W 011°02'910.3
2018-Apr-18 08:06N 39°05' W 011°05'110.0
2018-Apr-18 07:59N 39°04' W 011°05'10 8.8
2018-Apr-18 06:52N 38°54' W 011°09'26 8.6
2018-Apr-18 03:48N 38°30' W 011°21'3 8.3
2018-Apr-18 03:29N 38°27' W 011°22'4 8.3
2018-Apr-18 03:00N 38°23' W 011°24'4 8.4
2018-Apr-18 02:31N 38°20' W 011°26'4 8.1
2018-Apr-18 02:00N 38°16' W 011°28'4 8.0
2018-Apr-18 01:30N 38°12' W 011°30'4 7.7
2018-Apr-18 01:00N 38°08' W 011°32'4 7.7
2018-Apr-18 00:30N 38°05' W 011°33'4 7.8
2018-Apr-18 00:00N 38°01' W 011°35'4 8.0
2018-Apr-17 23:31N 37°57' W 011°37'4 8.2
2018-Apr-17 23:00N 37°54' W 011°39'4 8.2
2018-Apr-17 22:30N 37°50' W 011°40'4 8.1
2018-Apr-17 21:59N 37°46' W 011°41'5 7.9
2018-Apr-17 21:24N 37°41' W 011°43'3 8.0
2018-Apr-17 21:00N 37°38' W 011°43'4 7.8
2018-Apr-17 20:31N 37°34' W 011°44'4 7.7
2018-Apr-17 19:58N 37°30' W 011°46'4 7.8
2018-Apr-17 19:30N 37°27' W 011°47'4 7.9
2018-Apr-17 19:00N 37°23' W 011°48'4 8.0
2018-Apr-17 18:30N 37°19' W 011°49'4 8.1
2018-Apr-17 17:57N 37°14' W 011°50'14 8.3
2018-Apr-17 16:15N 37°01' W 011°53'3 9.6
2018-Apr-17 15:55N 36°57' W 011°54'410.7
2018-Apr-17 15:30N 36°53' W 011°55'448 9.4
2018-Apr-15 15:52N 29°42' W 014°23'3 8.6
2018-Apr-15 15:30N 29°39' W 014°24'4 8.7
2018-Apr-15 15:00N 29°35' W 014°25'4 8.9
2018-Apr-15 14:30N 29°31' W 014°27'6 9.0
2018-Apr-15 13:51N 29°25' W 014°29'3 8.9
2018-Apr-15 13:27N 29°22' W 014°30'4 8.9
2018-Apr-15 12:58N 29°18' W 014°31'4 9.0
2018-Apr-15 12:30N 29°14' W 014°33'5 8.9
2018-Apr-15 11:55N 29°09' W 014°34'4 8.8
2018-Apr-15 11:29N 29°05' W 014°36'5 8.8
2018-Apr-15 10:54N 29°00' W 014°37'4 8.8
2018-Apr-15 10:28N 28°57' W 014°38'4 8.7
2018-Apr-15 10:00N 28°53' W 014°40'4 8.6
2018-Apr-15 09:30N 28°49' W 014°41'5 8.5
2018-Apr-15 08:58N 28°44' W 014°42'4 8.4
2018-Apr-15 08:30N 28°40' W 014°44'4 8.3
2018-Apr-15 08:00N 28°36' W 014°45'4 8.1
2018-Apr-15 07:30N 28°33' W 014°46'4 8.1
2018-Apr-15 07:00N 28°29' W 014°48'4 8.1
2018-Apr-15 06:30N 28°25' W 014°49'4 8.2
2018-Apr-15 06:01N 28°21' W 014°50'4 8.1
2018-Apr-15 05:30N 28°17' W 014°52'4 8.0
2018-Apr-15 05:00N 28°13' W 014°53'4 8.0
2018-Apr-15 04:30N 28°10' W 014°55'4 8.0
2018-Apr-15 04:01N 28°06' W 014°56'4 8.0
2018-Apr-15 03:30N 28°02' W 014°58'4 7.9
2018-Apr-15 03:00N 27°58' W 014°59'4 7.9
2018-Apr-15 02:30N 27°54' W 015°01'4 8.2
2018-Apr-15 02:01N 27°51' W 015°02'4 8.6
2018-Apr-15 01:31N 27°47' W 015°04'5 8.9
2018-Apr-15 01:00N 27°42' W 015°06'5 8.7
2018-Apr-15 00:26N 27°38' W 015°07'6 8.5
2018-Apr-14 23:45N 27°32' W 015°10'  

Dump ship's entire track history